sensor_id;sensor_type;location;lat;lon;timestamp;temperature;humidity
4695;DHT22;2361;49.540;8.390;2024-03-02T00:00:35;8.00;99.90
4695;DHT22;2361;49.540;8.390;2024-03-02T00:02:58;8.00;99.90
4695;DHT22;2361;49.540;8.390;2024-03-02T00:05:21;7.90;99.90
4695;DHT22;2361;49.540;8.390;2024-03-02T00:07:46;7.90;99.90
4695;DHT22;2361;49.540;8.390;2024-03-02T00:10:20;7.80;99.90
4695;DHT22;2361;49.540;8.390;2024-03-02T00:12:51;7.70;99.90
4695;DHT22;2361;49.540;8.390;2024-03-02T00:18:01;7.50;99.90
4695;DHT22;2361;49.540;8.390;2024-03-02T00:20:23;7.40;99.90
4695;DHT22;2361;49.540;8.390;2024-03-02T00:22:45;7.40;99.90
4695;DHT22;2361;49.540;8.390;2024-03-02T00:25:10;7.40;99.90
4695;DHT22;2361;49.540;8.390;2024-03-02T00:27:32;7.30;99.90
4695;DHT22;2361;49.540;8.390;2024-03-02T00:29:54;7.30;99.90
4695;DHT22;2361;49.540;8.390;2024-03-02T00:32:18;7.20;99.90
4695;DHT22;2361;49.540;8.390;2024-03-02T00:34:40;7.20;99.90
4695;DHT22;2361;49.540;8.390;2024-03-02T00:37:02;7.20;99.90
4695;DHT22;2361;49.540;8.390;2024-03-02T00:39:24;7.20;99.90
4695;DHT22;2361;49.540;8.390;2024-03-02T00:41:46;7.20;99.90
4695;DHT22;2361;49.540;8.390;2024-03-02T00:44:12;7.20;99.90
4695;DHT22;2361;49.540;8.390;2024-03-02T00:46:36;7.20;99.90
4695;DHT22;2361;49.540;8.390;2024-03-02T00:49:00;7.20;99.90
4695;DHT22;2361;49.540;8.390;2024-03-02T00:51:25;7.20;99.90
4695;DHT22;2361;49.540;8.390;2024-03-02T00:54:01;7.20;99.90
4695;DHT22;2361;49.540;8.390;2024-03-02T00:56:26;7.20;99.90
4695;DHT22;2361;49.540;8.390;2024-03-02T00:58:49;7.20;99.90
4695;DHT22;2361;49.540;8.390;2024-03-02T01:01:11;7.20;99.90
4695;DHT22;2361;49.540;8.390;2024-03-02T01:03:34;7.20;99.90
4695;DHT22;2361;49.540;8.390;2024-03-02T01:05:56;7.20;99.90
4695;DHT22;2361;49.540;8.390;2024-03-02T01:08:18;7.20;99.90
4695;DHT22;2361;49.540;8.390;2024-03-02T01:10:40;7.20;99.90
4695;DHT22;2361;49.540;8.390;2024-03-02T01:13:02;7.20;99.90
4695;DHT22;2361;49.540;8.390;2024-03-02T01:15:24;7.10;99.90
4695;DHT22;2361;49.540;8.390;2024-03-02T01:17:46;7.10;99.90
4695;DHT22;2361;49.540;8.390;2024-03-02T01:20:08;7.10;99.90
4695;DHT22;2361;49.540;8.390;2024-03-02T01:22:31;6.90;99.90
4695;DHT22;2361;49.540;8.390;2024-03-02T01:24:53;6.80;99.90
4695;DHT22;2361;49.540;8.390;2024-03-02T01:27:15;6.80;99.90
4695;DHT22;2361;49.540;8.390;2024-03-02T01:29:37;6.70;99.90
4695;DHT22;2361;49.540;8.390;2024-03-02T01:31:59;6.70;99.90
4695;DHT22;2361;49.540;8.390;2024-03-02T01:34:21;6.70;99.90
4695;DHT22;2361;49.540;8.390;2024-03-02T01:36:43;6.70;99.90
4695;DHT22;2361;49.540;8.390;2024-03-02T01:39:05;6.60;99.90
4695;DHT22;2361;49.540;8.390;2024-03-02T01:41:30;6.60;99.90
4695;DHT22;2361;49.540;8.390;2024-03-02T01:43:52;6.60;99.90
4695;DHT22;2361;49.540;8.390;2024-03-02T01:46:15;6.60;99.90
4695;DHT22;2361;49.540;8.390;2024-03-02T01:48:37;6.60;99.90
4695;DHT22;2361;49.540;8.390;2024-03-02T01:50:59;6.60;99.90
4695;DHT22;2361;49.540;8.390;2024-03-02T01:53:21;6.70;99.90
4695;DHT22;2361;49.540;8.390;2024-03-02T01:55:43;6.70;99.90
4695;DHT22;2361;49.540;8.390;2024-03-02T01:58:05;6.70;99.90
4695;DHT22;2361;49.540;8.390;2024-03-02T02:00:27;6.70;99.90
4695;DHT22;2361;49.540;8.390;2024-03-02T02:02:49;6.80;99.90
4695;DHT22;2361;49.540;8.390;2024-03-02T02:05:12;6.80;99.90
4695;DHT22;2361;49.540;8.390;2024-03-02T02:07:35;6.80;99.90
4695;DHT22;2361;49.540;8.390;2024-03-02T02:09:57;6.90;99.90
4695;DHT22;2361;49.540;8.390;2024-03-02T02:12:19;6.80;99.90
4695;DHT22;2361;49.540;8.390;2024-03-02T02:14:47;6.80;99.90
4695;DHT22;2361;49.540;8.390;2024-03-02T02:17:10;6.80;99.90
4695;DHT22;2361;49.540;8.390;2024-03-02T02:19:32;6.70;99.90
4695;DHT22;2361;49.540;8.390;2024-03-02T02:21:55;6.70;99.90
4695;DHT22;2361;49.540;8.390;2024-03-02T02:24:17;6.70;99.90
4695;DHT22;2361;49.540;8.390;2024-03-02T02:26:39;6.70;99.90
4695;DHT22;2361;49.540;8.390;2024-03-02T02:29:01;6.70;99.90
4695;DHT22;2361;49.540;8.390;2024-03-02T02:31:23;6.70;99.90
4695;DHT22;2361;49.540;8.390;2024-03-02T02:33:45;6.60;99.90
4695;DHT22;2361;49.540;8.390;2024-03-02T02:36:08;6.70;99.90
4695;DHT22;2361;49.540;8.390;2024-03-02T02:38:33;6.70;99.90
4695;DHT22;2361;49.540;8.390;2024-03-02T02:40:57;6.60;99.90
4695;DHT22;2361;49.540;8.390;2024-03-02T02:43:19;6.50;99.90
4695;DHT22;2361;49.540;8.390;2024-03-02T02:45:41;6.50;99.90
4695;DHT22;2361;49.540;8.390;2024-03-02T02:48:03;6.50;99.90
4695;DHT22;2361;49.540;8.390;2024-03-02T02:50:25;6.50;99.90
4695;DHT22;2361;49.540;8.390;2024-03-02T02:52:47;6.40;99.90
4695;DHT22;2361;49.540;8.390;2024-03-02T02:55:11;6.40;99.90
4695;DHT22;2361;49.540;8.390;2024-03-02T02:57:34;6.40;99.90
4695;DHT22;2361;49.540;8.390;2024-03-02T03:00:02;6.40;99.90
4695;DHT22;2361;49.540;8.390;2024-03-02T03:02:31;6.40;99.90
4695;DHT22;2361;49.540;8.390;2024-03-02T03:04:53;6.40;99.90
4695;DHT22;2361;49.540;8.390;2024-03-02T03:07:15;6.30;99.90
4695;DHT22;2361;49.540;8.390;2024-03-02T03:09:38;6.40;99.90
4695;DHT22;2361;49.540;8.390;2024-03-02T03:12:02;6.40;99.90
4695;DHT22;2361;49.540;8.390;2024-03-02T03:14:24;6.40;99.90
4695;DHT22;2361;49.540;8.390;2024-03-02T03:16:46;6.40;99.90
4695;DHT22;2361;49.540;8.390;2024-03-02T03:19:10;6.40;99.90
4695;DHT22;2361;49.540;8.390;2024-03-02T03:21:32;6.30;99.90
4695;DHT22;2361;49.540;8.390;2024-03-02T03:23:54;6.30;99.90
4695;DHT22;2361;49.540;8.390;2024-03-02T03:26:17;6.40;99.90
4695;DHT22;2361;49.540;8.390;2024-03-02T03:28:38;6.40;99.90
4695;DHT22;2361;49.540;8.390;2024-03-02T03:31:00;6.40;99.90
4695;DHT22;2361;49.540;8.390;2024-03-02T03:33:23;6.40;99.90
4695;DHT22;2361;49.540;8.390;2024-03-02T03:35:45;6.40;99.90
4695;DHT22;2361;49.540;8.390;2024-03-02T03:38:07;6.40;99.90
4695;DHT22;2361;49.540;8.390;2024-03-02T03:40:29;6.30;99.90
4695;DHT22;2361;49.540;8.390;2024-03-02T03:42:52;6.30;99.90
4695;DHT22;2361;49.540;8.390;2024-03-02T03:45:14;6.30;99.90
4695;DHT22;2361;49.540;8.390;2024-03-02T03:47:36;6.30;99.90
4695;DHT22;2361;49.540;8.390;2024-03-02T03:49:58;6.30;99.90
4695;DHT22;2361;49.540;8.390;2024-03-02T03:52:20;6.30;99.90
4695;DHT22;2361;49.540;8.390;2024-03-02T03:54:42;6.30;99.90
4695;DHT22;2361;49.540;8.390;2024-03-02T03:57:06;6.30;99.90
4695;DHT22;2361;49.540;8.390;2024-03-02T03:59:28;6.30;99.90
4695;DHT22;2361;49.540;8.390;2024-03-02T04:01:50;6.30;99.90
4695;DHT22;2361;49.540;8.390;2024-03-02T04:04:12;6.30;99.90
4695;DHT22;2361;49.540;8.390;2024-03-02T04:06:34;6.30;99.90
4695;DHT22;2361;49.540;8.390;2024-03-02T04:08:56;6.30;99.90
4695;DHT22;2361;49.540;8.390;2024-03-02T04:11:18;6.30;99.90
4695;DHT22;2361;49.540;8.390;2024-03-02T04:13:40;6.30;99.90
4695;DHT22;2361;49.540;8.390;2024-03-02T04:16:02;6.30;99.90
4695;DHT22;2361;49.540;8.390;2024-03-02T04:18:25;6.30;99.90
4695;DHT22;2361;49.540;8.390;2024-03-02T04:20:47;6.30;99.90
4695;DHT22;2361;49.540;8.390;2024-03-02T04:23:12;6.30;99.90
4695;DHT22;2361;49.540;8.390;2024-03-02T04:25:34;6.30;99.90
4695;DHT22;2361;49.540;8.390;2024-03-02T04:27:56;6.30;99.90
4695;DHT22;2361;49.540;8.390;2024-03-02T04:30:18;6.30;99.90
4695;DHT22;2361;49.540;8.390;2024-03-02T04:32:40;6.30;99.90
4695;DHT22;2361;49.540;8.390;2024-03-02T04:35:02;6.30;99.90
4695;DHT22;2361;49.540;8.390;2024-03-02T04:37:24;6.30;99.90
4695;DHT22;2361;49.540;8.390;2024-03-02T04:39:46;6.30;99.90
4695;DHT22;2361;49.540;8.390;2024-03-02T04:42:08;6.20;99.90
4695;DHT22;2361;49.540;8.390;2024-03-02T04:44:30;6.20;99.90
4695;DHT22;2361;49.540;8.390;2024-03-02T04:46:52;6.10;99.90
4695;DHT22;2361;49.540;8.390;2024-03-02T04:49:14;6.20;99.90
4695;DHT22;2361;49.540;8.390;2024-03-02T04:51:36;6.20;99.90
4695;DHT22;2361;49.540;8.390;2024-03-02T04:53:58;6.20;99.90
4695;DHT22;2361;49.540;8.390;2024-03-02T04:56:20;6.20;99.90
4695;DHT22;2361;49.540;8.390;2024-03-02T04:59:01;6.20;99.90
4695;DHT22;2361;49.540;8.390;2024-03-02T05:01:23;6.20;99.90
4695;DHT22;2361;49.540;8.390;2024-03-02T05:03:45;6.20;99.90
4695;DHT22;2361;49.540;8.390;2024-03-02T05:06:07;6.20;99.90
4695;DHT22;2361;49.540;8.390;2024-03-02T05:08:30;6.20;99.90
4695;DHT22;2361;49.540;8.390;2024-03-02T05:10:52;6.10;99.90
4695;DHT22;2361;49.540;8.390;2024-03-02T05:13:14;6.10;99.90
4695;DHT22;2361;49.540;8.390;2024-03-02T05:15:36;6.10;99.90
4695;DHT22;2361;49.540;8.390;2024-03-02T05:17:58;6.10;99.90
4695;DHT22;2361;49.540;8.390;2024-03-02T05:20:21;6.10;99.90
4695;DHT22;2361;49.540;8.390;2024-03-02T05:22:43;6.10;99.90
4695;DHT22;2361;49.540;8.390;2024-03-02T05:25:06;6.10;99.90
4695;DHT22;2361;49.540;8.390;2024-03-02T05:27:29;6.10;99.90
4695;DHT22;2361;49.540;8.390;2024-03-02T05:29:51;6.10;99.90
4695;DHT22;2361;49.540;8.390;2024-03-02T05:32:13;6.10;99.90
4695;DHT22;2361;49.540;8.390;2024-03-02T05:34:35;6.20;99.90
4695;DHT22;2361;49.540;8.390;2024-03-02T05:36:57;6.20;99.90
4695;DHT22;2361;49.540;8.390;2024-03-02T05:39:19;6.30;99.90
4695;DHT22;2361;49.540;8.390;2024-03-02T05:41:41;6.40;99.90
4695;DHT22;2361;49.540;8.390;2024-03-02T05:44:04;6.40;99.90
4695;DHT22;2361;49.540;8.390;2024-03-02T05:46:26;6.50;99.90
4695;DHT22;2361;49.540;8.390;2024-03-02T05:48:48;6.50;99.90
4695;DHT22;2361;49.540;8.390;2024-03-02T05:51:10;6.50;99.90
4695;DHT22;2361;49.540;8.390;2024-03-02T05:53:32;6.60;99.90
4695;DHT22;2361;49.540;8.390;2024-03-02T05:55:54;6.50;99.90
4695;DHT22;2361;49.540;8.390;2024-03-02T05:58:17;6.60;99.90
4695;DHT22;2361;49.540;8.390;2024-03-02T06:00:52;6.60;99.90
4695;DHT22;2361;49.540;8.390;2024-03-02T06:03:16;6.60;99.90
4695;DHT22;2361;49.540;8.390;2024-03-02T06:05:38;6.60;99.90
4695;DHT22;2361;49.540;8.390;2024-03-02T06:08:00;6.60;99.90
4695;DHT22;2361;49.540;8.390;2024-03-02T06:10:22;6.60;99.90
4695;DHT22;2361;49.540;8.390;2024-03-02T06:12:45;6.60;99.90
4695;DHT22;2361;49.540;8.390;2024-03-02T06:15:07;6.60;99.90
4695;DHT22;2361;49.540;8.390;2024-03-02T06:17:29;6.70;99.90
4695;DHT22;2361;49.540;8.390;2024-03-02T06:19:52;6.70;99.90
4695;DHT22;2361;49.540;8.390;2024-03-02T06:22:14;6.80;99.90
4695;DHT22;2361;49.540;8.390;2024-03-02T06:24:36;6.80;99.90
4695;DHT22;2361;49.540;8.390;2024-03-02T06:26:59;6.90;99.90
4695;DHT22;2361;49.540;8.390;2024-03-02T06:29:21;6.90;99.90
4695;DHT22;2361;49.540;8.390;2024-03-02T06:31:43;6.90;99.90
4695;DHT22;2361;49.540;8.390;2024-03-02T06:34:06;7.00;99.90
4695;DHT22;2361;49.540;8.390;2024-03-02T06:36:30;7.00;99.90
4695;DHT22;2361;49.540;8.390;2024-03-02T06:38:52;7.00;99.90
4695;DHT22;2361;49.540;8.390;2024-03-02T06:41:14;7.10;99.90
4695;DHT22;2361;49.540;8.390;2024-03-02T06:43:36;7.10;99.90
4695;DHT22;2361;49.540;8.390;2024-03-02T06:45:58;7.10;99.90
4695;DHT22;2361;49.540;8.390;2024-03-02T06:48:20;7.10;99.90
4695;DHT22;2361;49.540;8.390;2024-03-02T06:50:42;7.20;99.90
4695;DHT22;2361;49.540;8.390;2024-03-02T06:53:04;7.20;99.90
4695;DHT22;2361;49.540;8.390;2024-03-02T06:55:26;7.20;99.90
4695;DHT22;2361;49.540;8.390;2024-03-02T06:57:48;7.20;99.90
4695;DHT22;2361;49.540;8.390;2024-03-02T07:00:10;7.10;99.90
4695;DHT22;2361;49.540;8.390;2024-03-02T07:02:33;7.10;99.90
4695;DHT22;2361;49.540;8.390;2024-03-02T07:04:55;7.10;99.90
4695;DHT22;2361;49.540;8.390;2024-03-02T07:07:17;7.10;99.90
4695;DHT22;2361;49.540;8.390;2024-03-02T07:09:39;7.10;99.90
4695;DHT22;2361;49.540;8.390;2024-03-02T07:12:01;7.10;99.90
4695;DHT22;2361;49.540;8.390;2024-03-02T07:14:23;7.20;99.90
4695;DHT22;2361;49.540;8.390;2024-03-02T07:17:06;7.30;99.90
4695;DHT22;2361;49.540;8.390;2024-03-02T07:19:27;7.40;99.90
4695;DHT22;2361;49.540;8.390;2024-03-02T07:21:49;7.70;99.90
4695;DHT22;2361;49.540;8.390;2024-03-02T07:24:12;8.50;99.90
4695;DHT22;2361;49.540;8.390;2024-03-02T07:26:36;9.20;99.90
4695;DHT22;2361;49.540;8.390;2024-03-02T07:29:01;9.50;99.90
4695;DHT22;2361;49.540;8.390;2024-03-02T07:31:23;9.40;99.90
4695;DHT22;2361;49.540;8.390;2024-03-02T07:33:45;9.40;99.90
4695;DHT22;2361;49.540;8.390;2024-03-02T07:36:08;9.60;99.90
4695;DHT22;2361;49.540;8.390;2024-03-02T07:38:30;9.60;99.90
4695;DHT22;2361;49.540;8.390;2024-03-02T07:40:55;9.50;99.90
4695;DHT22;2361;49.540;8.390;2024-03-02T07:43:18;9.40;99.90
4695;DHT22;2361;49.540;8.390;2024-03-02T07:45:41;9.30;99.90
4695;DHT22;2361;49.540;8.390;2024-03-02T07:48:03;9.30;99.90
4695;DHT22;2361;49.540;8.390;2024-03-02T07:50:25;9.30;99.90
4695;DHT22;2361;49.540;8.390;2024-03-02T07:52:47;9.20;99.90
4695;DHT22;2361;49.540;8.390;2024-03-02T07:55:09;9.20;99.90
4695;DHT22;2361;49.540;8.390;2024-03-02T07:57:31;9.20;99.90
4695;DHT22;2361;49.540;8.390;2024-03-02T07:59:53;9.20;99.90
4695;DHT22;2361;49.540;8.390;2024-03-02T08:02:15;9.20;99.90
4695;DHT22;2361;49.540;8.390;2024-03-02T08:04:37;9.20;99.90
4695;DHT22;2361;49.540;8.390;2024-03-02T08:06:59;9.40;99.90
4695;DHT22;2361;49.540;8.390;2024-03-02T08:09:21;9.50;99.90
4695;DHT22;2361;49.540;8.390;2024-03-02T08:11:44;9.60;99.90
4695;DHT22;2361;49.540;8.390;2024-03-02T08:14:05;9.80;99.90
4695;DHT22;2361;49.540;8.390;2024-03-02T08:16:28;10.10;99.90
4695;DHT22;2361;49.540;8.390;2024-03-02T08:18:50;10.30;99.90
4695;DHT22;2361;49.540;8.390;2024-03-02T08:21:13;10.50;99.90
4695;DHT22;2361;49.540;8.390;2024-03-02T08:23:35;10.60;99.90
4695;DHT22;2361;49.540;8.390;2024-03-02T08:25:57;10.80;99.90
4695;DHT22;2361;49.540;8.390;2024-03-02T08:28:19;10.80;99.90
4695;DHT22;2361;49.540;8.390;2024-03-02T08:30:41;10.80;99.90
4695;DHT22;2361;49.540;8.390;2024-03-02T08:33:04;10.80;99.90
4695;DHT22;2361;49.540;8.390;2024-03-02T08:35:27;10.80;99.90
4695;DHT22;2361;49.540;8.390;2024-03-02T08:37:49;10.90;99.90
4695;DHT22;2361;49.540;8.390;2024-03-02T08:40:12;11.00;99.90
4695;DHT22;2361;49.540;8.390;2024-03-02T08:42:37;11.20;99.90
4695;DHT22;2361;49.540;8.390;2024-03-02T08:44:59;11.50;99.90
4695;DHT22;2361;49.540;8.390;2024-03-02T08:47:22;11.70;99.90
4695;DHT22;2361;49.540;8.390;2024-03-02T08:49:44;11.90;99.90
4695;DHT22;2361;49.540;8.390;2024-03-02T08:52:06;12.10;99.90
4695;DHT22;2361;49.540;8.390;2024-03-02T08:54:28;12.20;99.90
4695;DHT22;2361;49.540;8.390;2024-03-02T08:56:50;12.40;99.90
4695;DHT22;2361;49.540;8.390;2024-03-02T08:59:12;12.70;99.90
4695;DHT22;2361;49.540;8.390;2024-03-02T09:01:34;12.90;99.90
4695;DHT22;2361;49.540;8.390;2024-03-02T09:03:56;13.10;99.90
4695;DHT22;2361;49.540;8.390;2024-03-02T09:06:18;13.20;99.90
4695;DHT22;2361;49.540;8.390;2024-03-02T09:08:42;13.50;99.90
4695;DHT22;2361;49.540;8.390;2024-03-02T09:11:05;13.80;99.90
4695;DHT22;2361;49.540;8.390;2024-03-02T09:13:28;14.20;99.90
4695;DHT22;2361;49.540;8.390;2024-03-02T09:15:51;14.60;99.90
4695;DHT22;2361;49.540;8.390;2024-03-02T09:18:13;15.10;99.90
4695;DHT22;2361;49.540;8.390;2024-03-02T09:20:35;15.60;99.90
4695;DHT22;2361;49.540;8.390;2024-03-02T09:22:57;16.40;99.90
4695;DHT22;2361;49.540;8.390;2024-03-02T09:25:19;17.30;99.90
4695;DHT22;2361;49.540;8.390;2024-03-02T09:27:41;19.10;99.90
4695;DHT22;2361;49.540;8.390;2024-03-02T09:30:04;21.30;95.30
4695;DHT22;2361;49.540;8.390;2024-03-02T09:32:27;23.30;89.50
4695;DHT22;2361;49.540;8.390;2024-03-02T09:34:49;24.90;77.80
4695;DHT22;2361;49.540;8.390;2024-03-02T09:37:11;26.40;70.20
4695;DHT22;2361;49.540;8.390;2024-03-02T09:39:33;27.30;62.80
4695;DHT22;2361;49.540;8.390;2024-03-02T09:41:57;28.10;59.60
4695;DHT22;2361;49.540;8.390;2024-03-02T09:44:23;27.90;57.70
4695;DHT22;2361;49.540;8.390;2024-03-02T09:46:49;26.90;56.60
4695;DHT22;2361;49.540;8.390;2024-03-02T09:49:11;25.70;57.80
4695;DHT22;2361;49.540;8.390;2024-03-02T09:51:33;24.50;59.30
4695;DHT22;2361;49.540;8.390;2024-03-02T09:53:55;23.90;60.10
4695;DHT22;2361;49.540;8.390;2024-03-02T09:56:29;23.90;60.40
4695;DHT22;2361;49.540;8.390;2024-03-02T09:58:51;24.10;59.60
4695;DHT22;2361;49.540;8.390;2024-03-02T10:01:13;24.00;59.60
4695;DHT22;2361;49.540;8.390;2024-03-02T10:03:36;24.50;59.50
4695;DHT22;2361;49.540;8.390;2024-03-02T10:08:43;26.70;56.10
4695;DHT22;2361;49.540;8.390;2024-03-02T10:11:05;27.60;54.70
4695;DHT22;2361;49.540;8.390;2024-03-02T10:13:28;28.10;54.10
4695;DHT22;2361;49.540;8.390;2024-03-02T10:15:50;28.80;52.80
4695;DHT22;2361;49.540;8.390;2024-03-02T10:18:26;29.60;51.30
4695;DHT22;2361;49.540;8.390;2024-03-02T10:20:50;30.30;50.30
4695;DHT22;2361;49.540;8.390;2024-03-02T10:23:16;30.70;49.10
4695;DHT22;2361;49.540;8.390;2024-03-02T10:25:39;30.80;48.50
4695;DHT22;2361;49.540;8.390;2024-03-02T10:28:08;31.00;47.90
4695;DHT22;2361;49.540;8.390;2024-03-02T10:30:30;31.20;47.50
4695;DHT22;2361;49.540;8.390;2024-03-02T10:32:55;30.50;47.40
4695;DHT22;2361;49.540;8.390;2024-03-02T10:35:17;30.00;47.70
4695;DHT22;2361;49.540;8.390;2024-03-02T10:37:39;30.40;47.60
4695;DHT22;2361;49.540;8.390;2024-03-02T10:40:05;30.30;47.20
4695;DHT22;2361;49.540;8.390;2024-03-02T10:42:28;28.90;48.00
4695;DHT22;2361;49.540;8.390;2024-03-02T10:44:50;27.60;49.40
4695;DHT22;2361;49.540;8.390;2024-03-02T10:47:13;26.10;50.60
4695;DHT22;2361;49.540;8.390;2024-03-02T10:49:38;24.70;51.90
4695;DHT22;2361;49.540;8.390;2024-03-02T10:52:03;23.40;53.50
4695;DHT22;2361;49.540;8.390;2024-03-02T10:54:26;22.30;55.80
4695;DHT22;2361;49.540;8.390;2024-03-02T10:56:50;21.40;57.40
4695;DHT22;2361;49.540;8.390;2024-03-02T10:59:32;20.70;59.00
4695;DHT22;2361;49.540;8.390;2024-03-02T11:01:56;20.20;60.10
4695;DHT22;2361;49.540;8.390;2024-03-02T11:04:25;20.20;61.30
4695;DHT22;2361;49.540;8.390;2024-03-02T11:06:51;20.40;61.40
4695;DHT22;2361;49.540;8.390;2024-03-02T11:09:14;20.40;61.70
4695;DHT22;2361;49.540;8.390;2024-03-02T11:11:41;20.20;61.70
4695;DHT22;2361;49.540;8.390;2024-03-02T11:14:07;20.00;62.60
4695;DHT22;2361;49.540;8.390;2024-03-02T11:16:37;19.70;63.00
4695;DHT22;2361;49.540;8.390;2024-03-02T11:19:08;19.40;64.10
4695;DHT22;2361;49.540;8.390;2024-03-02T11:21:38;19.20;64.40
4695;DHT22;2361;49.540;8.390;2024-03-02T11:24:28;18.90;64.90
4695;DHT22;2361;49.540;8.390;2024-03-02T11:26:58;18.70;65.10
4695;DHT22;2361;49.540;8.390;2024-03-02T11:31:58;18.30;65.70
4695;DHT22;2361;49.540;8.390;2024-03-02T11:34:32;18.00;66.90
4695;DHT22;2361;49.540;8.390;2024-03-02T11:36:55;17.80;67.70
4695;DHT22;2361;49.540;8.390;2024-03-02T11:39:18;17.50;68.10
4695;DHT22;2361;49.540;8.390;2024-03-02T11:41:40;17.20;68.50
4695;DHT22;2361;49.540;8.390;2024-03-02T11:44:04;17.00;69.80
4695;DHT22;2361;49.540;8.390;2024-03-02T11:46:26;16.70;69.60
4695;DHT22;2361;49.540;8.390;2024-03-02T11:48:47;16.40;69.40
4695;DHT22;2361;49.540;8.390;2024-03-02T11:51:11;16.20;70.40
4695;DHT22;2361;49.540;8.390;2024-03-02T11:53:33;16.10;70.60
4695;DHT22;2361;49.540;8.390;2024-03-02T11:55:58;16.00;71.20
4695;DHT22;2361;49.540;8.390;2024-03-02T11:58:20;15.90;71.90
4695;DHT22;2361;49.540;8.390;2024-03-02T12:00:45;15.80;72.00
4695;DHT22;2361;49.540;8.390;2024-03-02T12:03:09;15.70;72.90
4695;DHT22;2361;49.540;8.390;2024-03-02T12:05:35;15.60;73.30
4695;DHT22;2361;49.540;8.390;2024-03-02T12:08:02;15.50;72.60
4695;DHT22;2361;49.540;8.390;2024-03-02T12:10:26;15.40;73.60
4695;DHT22;2361;49.540;8.390;2024-03-02T12:12:54;15.40;73.60
4695;DHT22;2361;49.540;8.390;2024-03-02T12:15:23;15.30;74.40
4695;DHT22;2361;49.540;8.390;2024-03-02T12:17:47;15.20;74.70
4695;DHT22;2361;49.540;8.390;2024-03-02T12:20:12;15.20;74.50
4695;DHT22;2361;49.540;8.390;2024-03-02T12:22:34;15.20;74.90
4695;DHT22;2361;49.540;8.390;2024-03-02T12:24:56;15.40;74.60
4695;DHT22;2361;49.540;8.390;2024-03-02T12:27:18;15.50;74.20
4695;DHT22;2361;49.540;8.390;2024-03-02T12:29:43;15.60;75.00
4695;DHT22;2361;49.540;8.390;2024-03-02T12:32:05;15.70;74.70
4695;DHT22;2361;49.540;8.390;2024-03-02T12:34:28;15.80;74.90
4695;DHT22;2361;49.540;8.390;2024-03-02T12:36:50;15.90;75.40
4695;DHT22;2361;49.540;8.390;2024-03-02T12:39:15;15.90;74.80
4695;DHT22;2361;49.540;8.390;2024-03-02T12:41:38;15.90;74.70
4695;DHT22;2361;49.540;8.390;2024-03-02T12:44:00;16.10;74.90
4695;DHT22;2361;49.540;8.390;2024-03-02T12:46:22;16.20;74.70
4695;DHT22;2361;49.540;8.390;2024-03-02T12:48:45;16.20;74.90
4695;DHT22;2361;49.540;8.390;2024-03-02T12:51:08;16.20;75.10
4695;DHT22;2361;49.540;8.390;2024-03-02T12:53:30;16.10;75.20
4695;DHT22;2361;49.540;8.390;2024-03-02T12:55:52;16.10;76.00
4695;DHT22;2361;49.540;8.390;2024-03-02T12:58:21;15.90;75.30
4695;DHT22;2361;49.540;8.390;2024-03-02T13:00:43;15.80;75.30
4695;DHT22;2361;49.540;8.390;2024-03-02T13:03:06;15.70;75.30
4695;DHT22;2361;49.540;8.390;2024-03-02T13:05:32;15.60;76.30
4695;DHT22;2361;49.540;8.390;2024-03-02T13:07:54;15.60;76.80
4695;DHT22;2361;49.540;8.390;2024-03-02T13:10:16;15.50;76.70
4695;DHT22;2361;49.540;8.390;2024-03-02T13:12:39;15.40;77.40
4695;DHT22;2361;49.540;8.390;2024-03-02T13:15:02;15.40;78.00
4695;DHT22;2361;49.540;8.390;2024-03-02T13:17:25;15.40;77.60
4695;DHT22;2361;49.540;8.390;2024-03-02T13:22:15;15.40;77.50
4695;DHT22;2361;49.540;8.390;2024-03-02T13:24:37;15.40;77.70
4695;DHT22;2361;49.540;8.390;2024-03-02T13:26:59;15.40;78.20
4695;DHT22;2361;49.540;8.390;2024-03-02T13:29:22;15.40;78.80
4695;DHT22;2361;49.540;8.390;2024-03-02T13:31:44;15.40;78.70
4695;DHT22;2361;49.540;8.390;2024-03-02T13:34:05;15.30;78.70
4695;DHT22;2361;49.540;8.390;2024-03-02T13:36:28;15.40;78.80
4695;DHT22;2361;49.540;8.390;2024-03-02T13:38:50;15.40;78.70
4695;DHT22;2361;49.540;8.390;2024-03-02T13:41:12;15.30;78.60
4695;DHT22;2361;49.540;8.390;2024-03-02T13:43:33;15.30;78.70
4695;DHT22;2361;49.540;8.390;2024-03-02T13:45:56;15.30;78.10
4695;DHT22;2361;49.540;8.390;2024-03-02T13:48:19;15.20;79.10
4695;DHT22;2361;49.540;8.390;2024-03-02T13:50:42;15.20;79.40
4695;DHT22;2361;49.540;8.390;2024-03-02T13:53:04;15.10;79.70
4695;DHT22;2361;49.540;8.390;2024-03-02T13:55:26;15.10;79.80
4695;DHT22;2361;49.540;8.390;2024-03-02T13:57:48;15.00;79.50
4695;DHT22;2361;49.540;8.390;2024-03-02T14:00:12;15.00;79.90
4695;DHT22;2361;49.540;8.390;2024-03-02T14:02:34;15.00;80.00
4695;DHT22;2361;49.540;8.390;2024-03-02T14:04:56;15.20;80.10
4695;DHT22;2361;49.540;8.390;2024-03-02T14:07:18;15.20;79.50
4695;DHT22;2361;49.540;8.390;2024-03-02T14:09:42;15.30;79.70
4695;DHT22;2361;49.540;8.390;2024-03-02T14:12:05;15.30;80.00
4695;DHT22;2361;49.540;8.390;2024-03-02T14:14:28;15.30;80.00
4695;DHT22;2361;49.540;8.390;2024-03-02T14:16:50;15.40;80.00
4695;DHT22;2361;49.540;8.390;2024-03-02T14:19:12;15.30;80.10
4695;DHT22;2361;49.540;8.390;2024-03-02T14:21:34;15.30;80.50
4695;DHT22;2361;49.540;8.390;2024-03-02T14:23:57;15.30;80.90
4695;DHT22;2361;49.540;8.390;2024-03-02T14:26:19;15.40;81.50
4695;DHT22;2361;49.540;8.390;2024-03-02T14:28:41;15.30;81.40
4695;DHT22;2361;49.540;8.390;2024-03-02T14:31:10;15.40;81.50
4695;DHT22;2361;49.540;8.390;2024-03-02T14:33:32;15.40;82.00
4695;DHT22;2361;49.540;8.390;2024-03-02T14:35:54;15.40;82.80
4695;DHT22;2361;49.540;8.390;2024-03-02T14:38:16;15.40;83.60
4695;DHT22;2361;49.540;8.390;2024-03-02T14:40:38;15.30;83.80
4695;DHT22;2361;49.540;8.390;2024-03-02T14:43:00;15.30;84.20
4695;DHT22;2361;49.540;8.390;2024-03-02T14:45:22;15.40;84.50
4695;DHT22;2361;49.540;8.390;2024-03-02T14:47:45;15.40;84.50
4695;DHT22;2361;49.540;8.390;2024-03-02T14:50:08;15.40;84.70
4695;DHT22;2361;49.540;8.390;2024-03-02T14:52:32;15.40;85.30
4695;DHT22;2361;49.540;8.390;2024-03-02T14:54:54;15.40;86.20
4695;DHT22;2361;49.540;8.390;2024-03-02T14:57:16;15.50;85.70
4695;DHT22;2361;49.540;8.390;2024-03-02T14:59:38;15.50;85.80
4695;DHT22;2361;49.540;8.390;2024-03-02T15:02:00;15.60;86.00
4695;DHT22;2361;49.540;8.390;2024-03-02T15:04:22;15.60;86.20
4695;DHT22;2361;49.540;8.390;2024-03-02T15:06:44;15.60;86.30
4695;DHT22;2361;49.540;8.390;2024-03-02T15:09:06;15.60;87.00
4695;DHT22;2361;49.540;8.390;2024-03-02T15:11:29;15.50;87.70
4695;DHT22;2361;49.540;8.390;2024-03-02T15:13:51;15.40;88.00
4695;DHT22;2361;49.540;8.390;2024-03-02T15:16:13;15.30;88.00
4695;DHT22;2361;49.540;8.390;2024-03-02T15:18:35;15.30;88.50
4695;DHT22;2361;49.540;8.390;2024-03-02T15:20:57;15.20;88.90
4695;DHT22;2361;49.540;8.390;2024-03-02T15:23:19;15.20;89.30
4695;DHT22;2361;49.540;8.390;2024-03-02T15:25:41;15.10;89.80
4695;DHT22;2361;49.540;8.390;2024-03-02T15:28:04;15.10;90.10
4695;DHT22;2361;49.540;8.390;2024-03-02T15:30:26;15.10;90.20
4695;DHT22;2361;49.540;8.390;2024-03-02T15:32:48;15.10;89.90
4695;DHT22;2361;49.540;8.390;2024-03-02T15:35:10;15.10;90.10
4695;DHT22;2361;49.540;8.390;2024-03-02T15:37:32;15.10;90.00
4695;DHT22;2361;49.540;8.390;2024-03-02T15:39:54;15.10;90.20
4695;DHT22;2361;49.540;8.390;2024-03-02T15:42:16;15.00;90.30
4695;DHT22;2361;49.540;8.390;2024-03-02T15:44:39;15.00;90.50
4695;DHT22;2361;49.540;8.390;2024-03-02T15:47:03;15.10;90.40
4695;DHT22;2361;49.540;8.390;2024-03-02T15:49:25;15.10;90.40
4695;DHT22;2361;49.540;8.390;2024-03-02T15:51:49;15.20;90.20